Time;durP1;ratioP1;P1;durP2;ratioP2;P2;SDS_P1;SDS_P2;PMS_P1;PMS_P2;Temp;Humidity;BMP_temperature;BMP_pressure;BME280_temperature;BME280_humidity;BME280_pressure;Samples;Min_cycle;Max_cycle;Signal;HPM_P1;HPM_P2
2022/03/03 00:01:02;;;;;;;;;;;2.20;67.90;;;;;;5051918;28;20434;-80
2022/03/03 00:03:27;;;;;;;;;;;2.20;67.30;;;;;;5049056;28;20562;-80
2022/03/03 00:05:53;;;;;;;;;;;2.20;67.60;;;;;;5050553;28;20265;-80
2022/03/03 00:08:18;;;;;;;;;;;2.20;67.90;;;;;;5047956;28;20013;-79
2022/03/03 00:10:44;;;;;;;;;;;2.20;67.70;;;;;;5049990;28;19938;-81
2022/03/03 00:13:09;;;;;;;;;;;2.30;67.90;;;;;;5051446;28;19966;-80
2022/03/03 00:15:34;;;;;;;;;;;2.30;67.90;;;;;;5052972;28;19919;-81
2022/03/03 00:18:01;;;;;;;;;;;2.20;68.10;;;;;;5051884;28;20310;-80
2022/03/03 00:20:27;;;;;;;;;;;2.30;67.90;;;;;;5050585;28;19919;-81
2022/03/03 00:22:53;;;;;;;;;;;2.10;67.80;;;;;;5050952;28;20336;-81
2022/03/03 00:25:18;;;;;;;;;;;2.10;68.70;;;;;;5050868;28;19951;-81
2022/03/03 00:27:44;;;;;;;;;;;2.10;69.00;;;;;;5051746;28;20507;-81
2022/03/03 00:30:13;;;;;;;;;;;2.10;69.00;;;;;;5051763;28;20273;-81
2022/03/03 00:32:40;;;;;;;;;;;2.20;68.30;;;;;;5051741;28;20282;-80
2022/03/03 00:35:07;;;;;;;;;;;2.20;67.70;;;;;;5051588;28;19913;-81
2022/03/03 00:37:35;;;;;;;;;;;2.20;67.50;;;;;;5051545;28;19913;-81
2022/03/03 00:40:01;;;;;;;;;;;2.10;68.00;;;;;;5050366;28;19913;-81
2022/03/03 00:42:27;;;;;;;;;;;2.00;68.60;;;;;;5047689;28;19924;-80
2022/03/03 00:44:55;;;;;;;;;;;2.10;68.80;;;;;;5043775;28;19924;-80
2022/03/03 00:47:31;;;;;;;;;;;2.10;68.60;;;;;;5050211;28;20374;-80
2022/03/03 00:49:57;;;;;;;;;;;2.00;68.60;;;;;;5048826;28;19913;-80
2022/03/03 00:52:24;;;;;;;;;;;2.00;68.80;;;;;;5052561;28;19913;-80
2022/03/03 00:54:52;;;;;;;;;;;1.90;69.50;;;;;;5050894;28;19959;-79
2022/03/03 00:57:26;;;;;;;;;;;1.80;69.50;;;;;;5051288;28;19919;-80
2022/03/03 00:59:54;;;;;;;;;;;1.80;69.50;;;;;;5051837;28;19912;-80
2022/03/03 01:02:20;;;;;;;;;;;1.80;69.50;;;;;;5050900;28;20519;-80
2022/03/03 01:04:45;;;;;;;;;;;1.80;69.50;;;;;;5050521;28;19965;-80
2022/03/03 01:07:11;;;;;;;;;;;1.80;69.50;;;;;;5052551;28;19917;-79
2022/03/03 01:09:36;;;;;;;;;;;1.80;68.60;;;;;;5052588;28;19942;-80
2022/03/03 01:12:02;;;;;;;;;;;1.80;68.90;;;;;;5053248;28;20066;-80
2022/03/03 01:14:27;;;;;;;;;;;1.70;68.90;;;;;;5054092;28;19920;-80
2022/03/03 01:16:52;;;;;;;;;;;1.70;69.20;;;;;;5056175;28;19917;-79
2022/03/03 01:19:18;;;;;;;;;;;1.60;69.60;;;;;;5066729;28;19912;-80
2022/03/03 01:21:44;;;;;;;;;;;1.50;69.80;;;;;;5065098;28;19917;-80
2022/03/03 01:24:09;;;;;;;;;;;1.50;70.30;;;;;;5055592;28;19925;-80
2022/03/03 01:26:35;;;;;;;;;;;1.40;70.80;;;;;;5050615;28;20305;-79
2022/03/03 01:29:00;;;;;;;;;;;1.30;70.70;;;;;;5048559;28;19963;-80
2022/03/03 01:31:25;;;;;;;;;;;1.30;71.90;;;;;;5050164;28;19913;-80
2022/03/03 01:33:51;;;;;;;;;;;1.30;71.10;;;;;;5049931;28;20357;-80
2022/03/03 01:36:16;;;;;;;;;;;1.30;71.30;;;;;;5052224;28;19913;-80
2022/03/03 01:38:42;;;;;;;;;;;1.30;71.00;;;;;;5052259;28;19957;-79
2022/03/03 01:41:07;;;;;;;;;;;1.30;71.50;;;;;;5054441;28;19929;-79
2022/03/03 01:43:33;;;;;;;;;;;1.20;71.60;;;;;;5052450;28;19920;-79
2022/03/03 01:45:59;;;;;;;;;;;1.30;71.40;;;;;;5055964;28;19913;-80
2022/03/03 01:48:25;;;;;;;;;;;1.30;71.30;;;;;;5054036;28;19920;-79
2022/03/03 01:50:50;;;;;;;;;;;1.30;71.90;;;;;;5054084;28;19924;-80
2022/03/03 01:53:16;;;;;;;;;;;1.20;72.30;;;;;;5053175;28;19916;-79
2022/03/03 01:55:41;;;;;;;;;;;1.30;72.50;;;;;;5055233;28;19913;-80
2022/03/03 01:58:06;;;;;;;;;;;1.40;72.50;;;;;;5055543;28;19913;-80
2022/03/03 02:00:32;;;;;;;;;;;1.40;72.40;;;;;;5064556;28;20708;-80
2022/03/03 02:03:00;;;;;;;;;;;1.50;72.40;;;;;;5057263;28;19945;-80
2022/03/03 02:05:26;;;;;;;;;;;1.40;71.90;;;;;;5055600;28;19913;-80
2022/03/03 02:07:52;;;;;;;;;;;1.40;71.80;;;;;;5054614;28;19919;-80
2022/03/03 02:10:17;;;;;;;;;;;1.50;71.00;;;;;;5053330;28;19912;-80
2022/03/03 02:12:43;;;;;;;;;;;1.50;70.70;;;;;;5056866;28;20312;-80
2022/03/03 02:15:15;;;;;;;;;;;1.50;71.20;;;;;;5054651;28;19936;-80
2022/03/03 02:17:40;;;;;;;;;;;1.40;71.00;;;;;;5055601;28;20047;-80
2022/03/03 02:20:07;;;;;;;;;;;1.40;71.00;;;;;;5056053;28;20377;-80
2022/03/03 02:22:33;;;;;;;;;;;1.30;71.30;;;;;;5055091;28;19986;-80
2022/03/03 02:24:58;;;;;;;;;;;1.40;70.90;;;;;;5055615;28;19928;-81
2022/03/03 02:27:24;;;;;;;;;;;1.40;70.60;;;;;;5056360;28;19998;-80
2022/03/03 02:29:50;;;;;;;;;;;1.30;71.40;;;;;;5058129;28;19982;-80
2022/03/03 02:32:15;;;;;;;;;;;1.20;72.50;;;;;;5061326;28;19909;-80
2022/03/03 02:34:46;;;;;;;;;;;1.30;72.80;;;;;;5063516;28;20316;-80
2022/03/03 02:37:11;;;;;;;;;;;1.30;72.30;;;;;;5062138;28;20409;-80
2022/03/03 02:39:37;;;;;;;;;;;1.30;71.80;;;;;;5054994;28;19919;-81
2022/03/03 02:42:02;;;;;;;;;;;1.20;71.50;;;;;;5054788;28;20411;-80
2022/03/03 02:44:28;;;;;;;;;;;1.20;71.60;;;;;;5056010;28;19912;-80
2022/03/03 02:46:53;;;;;;;;;;;1.00;72.20;;;;;;5050891;28;19913;-80
2022/03/03 02:49:19;;;;;;;;;;;1.00;72.40;;;;;;5051605;28;20055;-80
2022/03/03 02:51:44;;;;;;;;;;;0.90;72.80;;;;;;5054535;28;19912;-80
2022/03/03 02:54:10;;;;;;;;;;;0.90;72.80;;;;;;5056981;28;19964;-80
2022/03/03 02:57:53;;;;;;;;;;;0.90;72.10;;;;;;5051797;28;19924;-81
2022/03/03 02:59:23;;;;;;;;;;;0.80;72.60;;;;;;5056256;28;19928;-81
2022/03/03 03:01:49;;;;;;;;;;;0.80;72.60;;;;;;5058716;28;19909;-81
2022/03/03 03:04:14;;;;;;;;;;;0.80;72.70;;;;;;5058685;28;19924;-80
2022/03/03 03:06:40;;;;;;;;;;;0.80;72.80;;;;;;5056261;28;20301;-81
2022/03/03 03:09:05;;;;;;;;;;;0.80;73.00;;;;;;5057085;28;19913;-80
2022/03/03 03:11:31;;;;;;;;;;;0.80;73.90;;;;;;5057902;28;19916;-80
2022/03/03 03:13:56;;;;;;;;;;;0.80;73.20;;;;;;5060731;28;19954;-80
2022/03/03 03:16:22;;;;;;;;;;;0.70;73.50;;;;;;5054640;28;20364;-80
2022/03/03 03:18:47;;;;;;;;;;;0.70;73.30;;;;;;5046927;28;20266;-80
2022/03/03 03:21:13;;;;;;;;;;;0.60;73.30;;;;;;5054493;28;20384;-80
2022/03/03 03:23:38;;;;;;;;;;;0.60;73.70;;;;;;5053780;28;20536;-80
2022/03/03 03:26:03;;;;;;;;;;;0.50;73.50;;;;;;5053520;28;19913;-80
2022/03/03 03:28:29;;;;;;;;;;;0.50;73.80;;;;;;5051505;28;19976;-80
2022/03/03 03:30:54;;;;;;;;;;;0.50;73.70;;;;;;5052824;28;19913;-80
2022/03/03 03:33:20;;;;;;;;;;;0.50;74.10;;;;;;5052831;28;19916;-81
2022/03/03 03:35:45;;;;;;;;;;;0.50;74.20;;;;;;5053384;28;19913;-80
2022/03/03 03:38:11;;;;;;;;;;;0.50;73.80;;;;;;5051479;28;19924;-79
2022/03/03 03:40:36;;;;;;;;;;;0.50;74.00;;;;;;5053558;28;19916;-80
2022/03/03 03:43:02;;;;;;;;;;;0.50;74.10;;;;;;5052168;28;19917;-80
2022/03/03 03:45:28;;;;;;;;;;;0.50;74.20;;;;;;5052937;28;19943;-80
2022/03/03 03:47:53;;;;;;;;;;;0.50;74.30;;;;;;5054294;28;20449;-80
2022/03/03 03:50:18;;;;;;;;;;;0.50;74.40;;;;;;5052548;28;19944;-81
2022/03/03 03:52:44;;;;;;;;;;;0.40;74.80;;;;;;5053766;28;20008;-81
2022/03/03 03:55:11;;;;;;;;;;;0.40;75.10;;;;;;5053149;28;19979;-80
2022/03/03 03:57:36;;;;;;;;;;;0.40;75.00;;;;;;5055159;28;20356;-80
2022/03/03 04:00:07;;;;;;;;;;;0.40;74.50;;;;;;5051936;28;20573;-80
2022/03/03 04:02:33;;;;;;;;;;;0.40;74.60;;;;;;5051687;28;19980;-80
2022/03/03 04:04:59;;;;;;;;;;;0.30;74.70;;;;;;5055357;28;19952;-80
2022/03/03 04:07:24;;;;;;;;;;;0.30;75.40;;;;;;5054927;28;20137;-80
2022/03/03 04:09:49;;;;;;;;;;;0.30;75.20;;;;;;5050499;28;19912;-80
2022/03/03 04:12:15;;;;;;;;;;;0.30;74.60;;;;;;5051551;28;19913;-80
2022/03/03 04:14:40;;;;;;;;;;;0.30;74.60;;;;;;5054151;28;19913;-80
2022/03/03 04:17:07;;;;;;;;;;;0.30;74.40;;;;;;5057010;28;19924;-80
2022/03/03 04:19:32;;;;;;;;;;;0.30;74.20;;;;;;5046572;28;19917;-80
2022/03/03 04:21:57;;;;;;;;;;;0.40;74.10;;;;;;5050972;28;20011;-80
2022/03/03 04:24:23;;;;;;;;;;;0.40;74.10;;;;;;5052165;28;19967;-80
2022/03/03 04:26:49;;;;;;;;;;;0.30;73.90;;;;;;5050096;28;19970;-80
2022/03/03 04:29:14;;;;;;;;;;;0.20;73.90;;;;;;5048956;28;20396;-80
2022/03/03 04:31:40;;;;;;;;;;;0.20;75.20;;;;;;5050382;28;20004;-80
2022/03/03 04:34:05;;;;;;;;;;;0.20;74.90;;;;;;5051638;28;20317;-80
2022/03/03 04:36:30;;;;;;;;;;;0.10;74.30;;;;;;5051248;28;20053;-80
2022/03/03 04:38:56;;;;;;;;;;;0.10;74.10;;;;;;5049201;28;20045;-80
2022/03/03 04:41:21;;;;;;;;;;;0.00;74.50;;;;;;5050373;28;20022;-80
2022/03/03 04:43:47;;;;;;;;;;;0.00;75.10;;;;;;5050633;28;20388;-81
2022/03/03 04:46:12;;;;;;;;;;;0.10;75.50;;;;;;5040555;28;19923;-81
2022/03/03 04:48:38;;;;;;;;;;;0.00;75.50;;;;;;5060098;28;19905;-81
2022/03/03 04:51:03;;;;;;;;;;;0.00;75.80;;;;;;5062241;28;19913;-81
2022/03/03 04:53:29;;;;;;;;;;;0.10;75.80;;;;;;5047028;28;19916;-80
2022/03/03 04:55:55;;;;;;;;;;;0.10;75.10;;;;;;5062458;28;19948;-80
2022/03/03 04:58:20;;;;;;;;;;;0.10;75.40;;;;;;5063021;28;20564;-81
2022/03/03 05:00:46;;;;;;;;;;;0.00;75.50;;;;;;5064366;28;19913;-80
2022/03/03 05:03:11;;;;;;;;;;;0.00;75.50;;;;;;5066122;28;19965;-80
2022/03/03 05:05:37;;;;;;;;;;;0.00;75.50;;;;;;5056344;28;20008;-81
2022/03/03 05:08:02;;;;;;;;;;;0.00;75.80;;;;;;5051230;28;19916;-81
2022/03/03 05:10:28;;;;;;;;;;;0.00;75.70;;;;;;5046400;28;19913;-82
2022/03/03 05:12:53;;;;;;;;;;;0.00;76.00;;;;;;5038858;28;19912;-81
2022/03/03 05:15:19;;;;;;;;;;;-3276.70;75.90;;;;;;5052290;28;19976;-80
2022/03/03 05:17:45;;;;;;;;;;;-3276.70;76.40;;;;;;5053712;28;20309;-81
2022/03/03 05:20:10;;;;;;;;;;;-3276.70;76.30;;;;;;5052032;28;20300;-81
2022/03/03 05:22:36;;;;;;;;;;;-3276.70;76.20;;;;;;5051920;28;20439;-80
2022/03/03 05:25:02;;;;;;;;;;;0.00;76.00;;;;;;5057154;28;20396;-80
2022/03/03 05:27:27;;;;;;;;;;;-3276.70;76.20;;;;;;5052422;28;19913;-80
2022/03/03 05:29:53;;;;;;;;;;;0.00;76.20;;;;;;5048257;28;19944;-80
2022/03/03 05:32:18;;;;;;;;;;;0.00;75.40;;;;;;5049629;28;19943;-81
2022/03/03 05:34:44;;;;;;;;;;;0.00;75.90;;;;;;5050955;28;19919;-81
2022/03/03 05:37:09;;;;;;;;;;;0.00;75.20;;;;;;5047799;28;20003;-81
2022/03/03 05:39:35;;;;;;;;;;;0.00;74.80;;;;;;5047146;28;19943;-81
2022/03/03 05:42:01;;;;;;;;;;;-3276.70;75.60;;;;;;5049784;28;19913;-81
2022/03/03 05:44:28;;;;;;;;;;;0.00;75.20;;;;;;5047729;28;19920;-81
2022/03/03 05:46:54;;;;;;;;;;;-3276.70;75.10;;;;;;5052607;28;20022;-81
2022/03/03 05:49:20;;;;;;;;;;;-3276.70;75.70;;;;;;5050310;28;20003;-81
2022/03/03 05:51:45;;;;;;;;;;;-3276.70;75.40;;;;;;5045911;28;20002;-81
2022/03/03 05:54:11;;;;;;;;;;;-3276.60;75.70;;;;;;5046617;28;19984;-81
2022/03/03 05:56:38;;;;;;;;;;;-3276.60;75.90;;;;;;5053940;28;19917;-81
2022/03/03 05:59:06;;;;;;;;;;;-3276.70;76.10;;;;;;5050038;28;19917;-80
2022/03/03 06:01:31;;;;;;;;;;;-3276.60;76.20;;;;;;5053524;28;19962;-81
2022/03/03 06:03:59;;;;;;;;;;;-3276.50;76.20;;;;;;5052999;28;20348;-79
2022/03/03 06:06:26;;;;;;;;;;;-3276.60;76.00;;;;;;5053011;28;20545;-81
2022/03/03 06:08:56;;;;;;;;;;;-3276.60;76.40;;;;;;5043931;28;19952;-81
2022/03/03 06:11:24;;;;;;;;;;;-3276.60;76.30;;;;;;5056324;28;19909;-82
2022/03/03 06:13:52;;;;;;;;;;;-3276.70;76.40;;;;;;5062695;28;19913;-80
2022/03/03 06:16:18;;;;;;;;;;;-3276.70;76.50;;;;;;5056527;28;19908;-80
2022/03/03 06:18:45;;;;;;;;;;;-3276.70;76.50;;;;;;5066379;28;19913;-82
2022/03/03 06:21:10;;;;;;;;;;;0.00;76.80;;;;;;5060520;28;20369;-81
2022/03/03 06:23:36;;;;;;;;;;;0.00;77.10;;;;;;5052107;28;19980;-80
2022/03/03 06:26:06;;;;;;;;;;;0.00;77.10;;;;;;5056690;28;20010;-80
2022/03/03 06:28:32;;;;;;;;;;;0.00;76.80;;;;;;5058530;28;19920;-81
2022/03/03 06:30:58;;;;;;;;;;;0.00;76.40;;;;;;5056422;28;20364;-80
2022/03/03 06:33:25;;;;;;;;;;;0.00;76.10;;;;;;5058429;28;19940;-81
2022/03/03 06:35:51;;;;;;;;;;;0.00;76.20;;;;;;5057317;28;19912;-81
2022/03/03 06:38:16;;;;;;;;;;;0.00;76.20;;;;;;5041144;28;19992;-84
2022/03/03 06:40:42;;;;;;;;;;;0.10;75.90;;;;;;5050938;28;19921;-84
2022/03/03 06:43:08;;;;;;;;;;;0.10;75.70;;;;;;5051401;28;19917;-82
2022/03/03 06:45:33;;;;;;;;;;;0.10;75.70;;;;;;5055183;28;20545;-84
2022/03/03 06:48:00;;;;;;;;;;;0.10;76.40;;;;;;5050434;28;19982;-79
2022/03/03 06:50:26;;;;;;;;;;;0.30;75.90;;;;;;5051924;28;19913;-79
2022/03/03 06:52:52;;;;;;;;;;;0.30;75.60;;;;;;5052894;28;19920;-79
2022/03/03 06:55:19;;;;;;;;;;;0.20;75.60;;;;;;5054272;28;19909;-79
2022/03/03 06:57:46;;;;;;;;;;;0.30;76.20;;;;;;5037193;28;19940;-79
2022/03/03 07:00:12;;;;;;;;;;;0.30;76.40;;;;;;5049640;28;20429;-79
2022/03/03 07:02:37;;;;;;;;;;;0.30;76.10;;;;;;5055169;28;19963;-80
2022/03/03 07:05:03;;;;;;;;;;;0.40;75.70;;;;;;5058135;28;19933;-79
2022/03/03 07:07:29;;;;;;;;;;;0.40;75.50;;;;;;5056966;28;19909;-79
2022/03/03 07:09:55;;;;;;;;;;;0.40;75.90;;;;;;5057642;28;19992;-80
2022/03/03 07:12:20;;;;;;;;;;;0.50;76.00;;;;;;5051877;28;20115;-80
2022/03/03 07:14:46;;;;;;;;;;;0.50;76.30;;;;;;5053107;28;19972;-80
2022/03/03 07:17:31;;;;;;;;;;;0.50;76.10;;;;;;5053060;28;19921;-80
2022/03/03 07:20:05;;;;;;;;;;;0.60;76.30;;;;;;5053124;28;19913;-79
2022/03/03 07:22:35;;;;;;;;;;;0.50;76.60;;;;;;5052122;28;19992;-79
2022/03/03 07:25:01;;;;;;;;;;;0.60;77.10;;;;;;5054922;28;20395;-80
2022/03/03 07:27:26;;;;;;;;;;;0.60;76.80;;;;;;5054274;28;19912;-79
2022/03/03 07:29:56;;;;;;;;;;;0.70;76.80;;;;;;5051893;28;19969;-81
2022/03/03 07:32:26;;;;;;;;;;;0.70;76.30;;;;;;5052394;28;19996;-80
2022/03/03 07:34:56;;;;;;;;;;;0.80;76.70;;;;;;5054062;28;19939;-81
2022/03/03 07:37:25;;;;;;;;;;;1.00;76.00;;;;;;5049690;28;19921;-80
2022/03/03 07:39:52;;;;;;;;;;;1.00;75.70;;;;;;5049576;28;19917;-80
2022/03/03 07:42:19;;;;;;;;;;;1.10;75.30;;;;;;5036358;28;19913;-81
2022/03/03 07:44:45;;;;;;;;;;;1.10;75.30;;;;;;5054313;28;19913;-80
2022/03/03 07:47:11;;;;;;;;;;;1.30;75.40;;;;;;5053651;28;19919;-81
2022/03/03 07:49:37;;;;;;;;;;;1.30;75.30;;;;;;5054291;28;19921;-80
2022/03/03 07:52:03;;;;;;;;;;;1.20;74.70;;;;;;5048283;28;19964;-80
2022/03/03 07:54:29;;;;;;;;;;;1.30;74.90;;;;;;5050015;28;19917;-80
2022/03/03 07:56:56;;;;;;;;;;;1.30;74.30;;;;;;5053556;28;19913;-80
2022/03/03 07:59:25;;;;;;;;;;;1.30;74.80;;;;;;5052192;28;20369;-80
2022/03/03 08:01:50;;;;;;;;;;;1.30;74.00;;;;;;5037113;28;20123;-80
2022/03/03 08:04:16;;;;;;;;;;;1.30;74.50;;;;;;5053268;28;20439;-80
2022/03/03 08:06:43;;;;;;;;;;;1.30;74.40;;;;;;5052260;28;19920;-80
2022/03/03 08:09:08;;;;;;;;;;;1.30;74.10;;;;;;5053309;28;19915;-80
2022/03/03 08:11:35;;;;;;;;;;;1.40;74.40;;;;;;5052241;28;20274;-80
2022/03/03 08:14:01;;;;;;;;;;;1.50;74.30;;;;;;5057587;28;19913;-80
2022/03/03 08:16:27;;;;;;;;;;;1.50;73.30;;;;;;5033584;28;19913;-80
2022/03/03 08:18:54;;;;;;;;;;;1.60;73.20;;;;;;5052838;28;19912;-80
2022/03/03 08:21:20;;;;;;;;;;;1.60;73.00;;;;;;5054031;28;20278;-80
2022/03/03 08:23:46;;;;;;;;;;;1.70;72.90;;;;;;5054918;28;19980;-79
2022/03/03 08:26:13;;;;;;;;;;;1.70;72.30;;;;;;5055392;28;19940;-79
2022/03/03 08:28:41;;;;;;;;;;;1.80;73.00;;;;;;5052373;28;19913;-80
2022/03/03 08:31:07;;;;;;;;;;;1.90;73.60;;;;;;5053655;28;19923;-81
2022/03/03 08:33:40;;;;;;;;;;;2.00;72.70;;;;;;5052158;28;20111;-79
2022/03/03 08:36:08;;;;;;;;;;;2.10;72.10;;;;;;5054247;28;20054;-81
2022/03/03 08:38:35;;;;;;;;;;;2.20;71.90;;;;;;5051534;28;20361;-82
2022/03/03 08:41:01;;;;;;;;;;;2.20;71.10;;;;;;5048252;28;19912;-84
2022/03/03 08:43:30;;;;;;;;;;;2.20;70.00;;;;;;5059932;28;19917;-81
2022/03/03 08:46:02;;;;;;;;;;;2.30;69.90;;;;;;5068791;28;19938;-81
2022/03/03 08:48:30;;;;;;;;;;;2.40;69.80;;;;;;5063904;28;19913;-80
2022/03/03 08:50:56;;;;;;;;;;;2.50;69.80;;;;;;5054009;28;19932;-78
2022/03/03 08:53:22;;;;;;;;;;;2.50;69.40;;;;;;5058060;28;19913;-79
2022/03/03 08:55:47;;;;;;;;;;;2.60;68.20;;;;;;5056313;28;19960;-82
2022/03/03 08:58:14;;;;;;;;;;;2.70;68.90;;;;;;5065134;28;19924;-80
2022/03/03 09:00:40;;;;;;;;;;;2.80;67.90;;;;;;5057014;28;19917;-81
2022/03/03 09:03:05;;;;;;;;;;;2.90;68.30;;;;;;5041397;28;19917;-80
2022/03/03 09:05:32;;;;;;;;;;;3.10;68.20;;;;;;5047538;28;20331;-81
2022/03/03 09:07:57;;;;;;;;;;;3.30;67.70;;;;;;5051469;28;20002;-81
2022/03/03 09:10:23;;;;;;;;;;;3.30;66.40;;;;;;5047630;28;19968;-79
2022/03/03 09:12:48;;;;;;;;;;;3.40;66.90;;;;;;5051311;28;19990;-80
2022/03/03 09:15:14;;;;;;;;;;;3.50;65.80;;;;;;5041013;28;20413;-81
2022/03/03 09:17:39;;;;;;;;;;;3.70;64.90;;;;;;5049966;28;20000;-81
2022/03/03 09:20:06;;;;;;;;;;;3.80;65.30;;;;;;5048479;28;20007;-80
2022/03/03 09:22:32;;;;;;;;;;;3.90;66.00;;;;;;5041626;28;20012;-80
2022/03/03 09:24:58;;;;;;;;;;;3.90;64.20;;;;;;5038581;28;19941;-81
2022/03/03 09:27:23;;;;;;;;;;;4.00;62.60;;;;;;5050436;28;19963;-81
2022/03/03 09:29:49;;;;;;;;;;;4.10;62.40;;;;;;5042976;28;19913;-80
2022/03/03 09:32:14;;;;;;;;;;;4.20;62.10;;;;;;5029927;28;20441;-80
2022/03/03 09:34:40;;;;;;;;;;;4.30;62.20;;;;;;5033748;28;19921;-81
2022/03/03 09:37:06;;;;;;;;;;;4.40;61.60;;;;;;5049987;28;19913;-81
2022/03/03 09:39:31;;;;;;;;;;;4.60;61.50;;;;;;5048720;28;19951;-81
2022/03/03 09:41:57;;;;;;;;;;;4.60;60.60;;;;;;5052023;28;19909;-81
2022/03/03 09:44:23;;;;;;;;;;;4.60;59.90;;;;;;5039120;28;19921;-81
2022/03/03 09:46:49;;;;;;;;;;;4.70;59.40;;;;;;5049508;28;19913;-80
2022/03/03 09:49:16;;;;;;;;;;;4.90;59.90;;;;;;5048347;28;19909;-80
2022/03/03 09:51:41;;;;;;;;;;;5.00;60.20;;;;;;5050593;28;19921;-79
2022/03/03 09:54:07;;;;;;;;;;;5.10;58.20;;;;;;5050988;28;19915;-80
2022/03/03 09:56:33;;;;;;;;;;;5.10;57.20;;;;;;5050890;28;19920;-80
2022/03/03 09:58:58;;;;;;;;;;;5.30;57.40;;;;;;5053901;28;19967;-79
2022/03/03 10:01:27;;;;;;;;;;;5.40;56.40;;;;;;5056582;28;19913;-80
2022/03/03 10:03:54;;;;;;;;;;;5.60;56.00;;;;;;5054274;28;19932;-80
2022/03/03 10:06:25;;;;;;;;;;;5.80;54.30;;;;;;5051811;28;19917;-79
2022/03/03 10:08:51;;;;;;;;;;;6.00;53.30;;;;;;5052062;28;19959;-80
2022/03/03 10:11:16;;;;;;;;;;;6.10;53.20;;;;;;5047094;28;19991;-79
2022/03/03 10:13:46;;;;;;;;;;;6.20;54.30;;;;;;5047811;28;20094;-80
2022/03/03 10:16:18;;;;;;;;;;;6.20;53.00;;;;;;5054040;28;19909;-80
2022/03/03 10:18:48;;;;;;;;;;;6.40;52.20;;;;;;5054345;28;19920;-82
2022/03/03 10:21:14;;;;;;;;;;;6.50;52.90;;;;;;5054770;28;19920;-83
2022/03/03 10:23:39;;;;;;;;;;;6.60;50.90;;;;;;5053370;28;19917;-82
2022/03/03 10:26:08;;;;;;;;;;;6.70;52.10;;;;;;5051069;28;20304;-82
2022/03/03 10:28:35;;;;;;;;;;;6.70;50.60;;;;;;5045865;28;19971;-81
2022/03/03 10:31:04;;;;;;;;;;;6.70;50.60;;;;;;5052533;28;19909;-81
2022/03/03 10:33:32;;;;;;;;;;;6.80;49.80;;;;;;5053552;28;19909;-81
2022/03/03 10:35:59;;;;;;;;;;;6.80;50.30;;;;;;5036680;28;20389;-81
2022/03/03 10:38:25;;;;;;;;;;;6.90;50.00;;;;;;5051844;28;19988;-81
2022/03/03 10:40:50;;;;;;;;;;;7.00;49.40;;;;;;5050687;28;19940;-80
2022/03/03 10:43:16;;;;;;;;;;;7.00;50.20;;;;;;5051244;28;19917;-82
2022/03/03 10:45:58;;;;;;;;;;;7.10;50.70;;;;;;5054978;28;19933;-82
2022/03/03 10:48:25;;;;;;;;;;;7.10;49.70;;;;;;5047472;28;19945;-82
2022/03/03 10:50:51;;;;;;;;;;;7.10;49.90;;;;;;5051986;28;19950;-82
2022/03/03 10:53:18;;;;;;;;;;;7.30;49.50;;;;;;5046722;28;19937;-81
2022/03/03 10:56:07;;;;;;;;;;;7.50;48.80;;;;;;5053917;28;20400;-82
2022/03/03 10:59:04;;;;;;;;;;;7.50;48.70;;;;;;5042518;28;20242;-82
2022/03/03 11:01:30;;;;;;;;;;;7.50;47.00;;;;;;5034557;28;19920;-81
2022/03/03 11:03:56;;;;;;;;;;;7.50;46.40;;;;;;5046045;28;19927;-80
2022/03/03 11:06:26;;;;;;;;;;;7.50;45.80;;;;;;5052988;28;20007;-82
2022/03/03 11:08:53;;;;;;;;;;;7.60;47.10;;;;;;5051519;28;19912;-81
2022/03/03 11:11:19;;;;;;;;;;;7.80;44.90;;;;;;5050797;28;19917;-81
2022/03/03 11:13:47;;;;;;;;;;;7.80;46.80;;;;;;5049095;28;19931;-80
2022/03/03 11:16:14;;;;;;;;;;;7.70;45.90;;;;;;5045983;28;20017;-79
2022/03/03 11:18:40;;;;;;;;;;;7.90;45.00;;;;;;5050055;28;20388;-80
2022/03/03 11:21:06;;;;;;;;;;;8.10;44.30;;;;;;5051872;28;19921;-80
2022/03/03 11:23:39;;;;;;;;;;;8.10;45.60;;;;;;5050206;28;19920;-77
2022/03/03 11:26:06;;;;;;;;;;;8.10;46.50;;;;;;5045644;28;20551;-78
2022/03/03 11:28:35;;;;;;;;;;;8.10;44.70;;;;;;5046499;28;19917;-77
2022/03/03 11:31:21;;;;;;;;;;;8.30;45.60;;;;;;5048898;28;19955;-77
2022/03/03 11:33:47;;;;;;;;;;;8.30;45.30;;;;;;5046760;28;19952;-78
2022/03/03 11:36:18;;;;;;;;;;;8.40;43.90;;;;;;5043815;28;20345;-79
2022/03/03 11:39:01;;;;;;;;;;;8.50;42.90;;;;;;5047840;28;19917;-78
2022/03/03 11:41:46;;;;;;;;;;;8.50;45.20;;;;;;5051210;28;19913;-79
2022/03/03 11:44:13;;;;;;;;;;;8.50;44.80;;;;;;5045043;28;19929;-78
2022/03/03 11:46:46;;;;;;;;;;;8.60;44.10;;;;;;5046682;28;19913;-78
2022/03/03 11:49:12;;;;;;;;;;;8.80;42.70;;;;;;5054173;28;19951;-79
2022/03/03 11:51:38;;;;;;;;;;;8.60;42.80;;;;;;5048657;28;19924;-78
2022/03/03 11:54:07;;;;;;;;;;;8.60;43.60;;;;;;5050211;28;19991;-78
2022/03/03 11:56:33;;;;;;;;;;;8.60;45.40;;;;;;5052216;28;19913;-78
2022/03/03 11:59:12;;;;;;;;;;;8.70;45.60;;;;;;5047139;28;19920;-78
2022/03/03 12:01:56;;;;;;;;;;;8.70;44.50;;;;;;5063254;28;19912;-78
2022/03/03 12:04:25;;;;;;;;;;;8.70;42.90;;;;;;5055387;28;20332;-78
2022/03/03 12:06:51;;;;;;;;;;;8.70;43.60;;;;;;5060585;28;19932;-78
2022/03/03 12:09:17;;;;;;;;;;;8.80;44.20;;;;;;5061683;28;19913;-78
2022/03/03 12:11:43;;;;;;;;;;;8.90;45.30;;;;;;5059265;28;19913;-81
2022/03/03 12:14:26;;;;;;;;;;;8.90;44.30;;;;;;5062574;28;19984;-78
2022/03/03 12:16:52;;;;;;;;;;;8.90;43.50;;;;;;5063275;28;19919;-78
2022/03/03 12:19:18;;;;;;;;;;;8.80;44.30;;;;;;5064321;28;19968;-78
2022/03/03 12:21:45;;;;;;;;;;;8.90;43.20;;;;;;5065504;28;19913;-79
2022/03/03 12:24:13;;;;;;;;;;;9.00;43.00;;;;;;5051877;28;19975;-79
2022/03/03 12:26:58;;;;;;;;;;;9.10;42.30;;;;;;5052539;28;20029;-79
2022/03/03 12:29:39;;;;;;;;;;;9.20;44.00;;;;;;5046618;28;19913;-79
2022/03/03 12:32:24;;;;;;;;;;;9.10;41.80;;;;;;5054114;28;19913;-79
2022/03/03 12:34:49;;;;;;;;;;;9.10;42.10;;;;;;5046615;28;20401;-79
2022/03/03 12:37:15;;;;;;;;;;;9.20;44.00;;;;;;5051261;28;19913;-79
2022/03/03 12:39:47;;;;;;;;;;;9.30;42.20;;;;;;5046759;28;20015;-79
2022/03/03 12:42:16;;;;;;;;;;;9.30;43.10;;;;;;5052730;28;20019;-79
2022/03/03 12:44:41;;;;;;;;;;;9.30;42.80;;;;;;5044202;28;19916;-79
2022/03/03 12:47:07;;;;;;;;;;;9.40;41.50;;;;;;5053203;28;19974;-79
2022/03/03 12:49:38;;;;;;;;;;;9.40;42.00;;;;;;5053644;28;19921;-79
2022/03/03 12:52:04;;;;;;;;;;;9.50;41.60;;;;;;5052011;28;19921;-78
2022/03/03 12:54:30;;;;;;;;;;;9.60;41.20;;;;;;5047806;28;19924;-79
2022/03/03 12:56:59;;;;;;;;;;;9.60;41.10;;;;;;5049766;28;19913;-79
2022/03/03 12:59:25;;;;;;;;;;;9.50;41.40;;;;;;5044162;28;19913;-83
2022/03/03 13:01:50;;;;;;;;;;;9.50;39.60;;;;;;5048431;28;19924;-79
2022/03/03 13:04:20;;;;;;;;;;;9.60;41.40;;;;;;5051230;28;20008;-80
2022/03/03 13:06:45;;;;;;;;;;;9.60;41.50;;;;;;5050770;28;19913;-79
2022/03/03 13:09:12;;;;;;;;;;;9.80;42.20;;;;;;5053515;28;19919;-79
2022/03/03 13:11:37;;;;;;;;;;;9.70;42.10;;;;;;5063341;28;20729;-79
2022/03/03 13:14:07;;;;;;;;;;;9.80;41.40;;;;;;5064196;28;19959;-79
2022/03/03 13:16:36;;;;;;;;;;;9.90;41.10;;;;;;5058401;28;19917;-78
2022/03/03 13:19:03;;;;;;;;;;;10.00;40.50;;;;;;5060899;28;19913;-83
2022/03/03 13:21:30;;;;;;;;;;;10.00;42.40;;;;;;5054551;28;19913;-79
2022/03/03 13:23:57;;;;;;;;;;;10.00;40.50;;;;;;5045683;28;19963;-80
2022/03/03 13:26:24;;;;;;;;;;;10.00;41.90;;;;;;5051116;28;19916;-82
2022/03/03 13:28:52;;;;;;;;;;;10.00;41.20;;;;;;5049550;28;19913;-81
2022/03/03 13:31:18;;;;;;;;;;;10.00;40.20;;;;;;5050136;28;19912;-82
2022/03/03 13:33:44;;;;;;;;;;;10.10;40.00;;;;;;5052834;28;20426;-81
2022/03/03 13:36:10;;;;;;;;;;;10.10;40.10;;;;;;5053468;28;20011;-80
2022/03/03 13:38:36;;;;;;;;;;;10.10;39.00;;;;;;5044134;28;19978;-82
2022/03/03 13:41:02;;;;;;;;;;;10.10;41.20;;;;;;5046065;28;20003;-83
2022/03/03 13:43:29;;;;;;;;;;;10.10;41.10;;;;;;5052198;28;20408;-81
2022/03/03 13:45:54;;;;;;;;;;;10.10;40.70;;;;;;5055992;28;20341;-81
2022/03/03 13:48:20;;;;;;;;;;;10.20;42.50;;;;;;5053908;28;19916;-83
2022/03/03 13:51:00;;;;;;;;;;;10.20;42.00;;;;;;5061241;28;19913;-80
2022/03/03 13:53:27;;;;;;;;;;;10.20;40.50;;;;;;5058825;28;19947;-80
2022/03/03 13:55:57;;;;;;;;;;;10.30;42.40;;;;;;5063556;28;19909;-80
2022/03/03 13:58:23;;;;;;;;;;;10.30;42.50;;;;;;5066934;28;19948;-80
2022/03/03 14:00:49;;;;;;;;;;;10.30;43.10;;;;;;5063505;28;19919;-80
2022/03/03 14:03:16;;;;;;;;;;;10.20;41.60;;;;;;5065212;28;19944;-79
2022/03/03 14:05:50;;;;;;;;;;;10.20;41.30;;;;;;5065041;28;19919;-79
2022/03/03 14:08:23;;;;;;;;;;;10.20;42.10;;;;;;5063136;28;19913;-80
2022/03/03 14:10:50;;;;;;;;;;;10.30;41.80;;;;;;5063033;28;19912;-80
2022/03/03 14:13:16;;;;;;;;;;;10.20;41.50;;;;;;5083365;28;19944;-81
2022/03/03 14:15:42;;;;;;;;;;;10.20;41.80;;;;;;5083403;28;19908;-79
2022/03/03 14:18:07;;;;;;;;;;;10.20;41.50;;;;;;5069246;28;19913;-81
2022/03/03 14:20:36;;;;;;;;;;;10.20;41.70;;;;;;5061455;28;19924;-81
2022/03/03 14:23:01;;;;;;;;;;;10.10;40.20;;;;;;5064455;28;19916;-81
2022/03/03 14:25:28;;;;;;;;;;;10.20;39.70;;;;;;5063583;28;19959;-83